Time;durP1;ratioP1;P1;durP2;ratioP2;P2;SDS_P1;SDS_P2;PMS_P1;PMS_P2;Temp;Humidity;BMP_temperature;BMP_pressure;BME280_temperature;BME280_humidity;BME280_pressure;Samples;Min_cycle;Max_cycle;Signal;HPM_P1;HPM_P2
2021/05/27 00:02:10;;;;;;;6.07;2.53;;;435.90;1510.40;;;;;;5057063;28;20024;-61
2021/05/27 00:04:36;;;;;;;8.60;2.83;;;435.90;1510.40;;;;;;5058102;28;20033;-61
2021/05/27 00:07:02;;;;;;;4.38;2.67;;;435.90;1510.40;;;;;;5057056;28;20496;-68
2021/05/27 00:09:28;;;;;;;5.13;2.45;;;435.70;1536.00;;;;;;5038973;28;20075;-64
2021/05/27 00:11:55;;;;;;;12.38;3.33;;;435.70;1510.40;;;;;;5039016;28;20025;-62
2021/05/27 00:14:21;;;;;;;7.53;3.20;;;435.60;1536.00;;;;;;5056904;28;20032;-62
2021/05/27 00:16:48;;;;;;;9.85;3.15;;;435.60;1561.60;;;;;;5057128;28;20465;-69
2021/05/27 00:19:14;;;;;;;11.50;3.08;;;435.60;1536.00;;;;;;5056754;28;20048;-62
2021/05/27 00:21:40;;;;;;;6.95;3.08;;;435.60;1536.00;;;;;;5056700;28;20029;-62
2021/05/27 00:24:07;;;;;;;10.07;3.75;;;435.50;1561.60;;;;;;5056768;28;20025;-68
2021/05/27 00:26:33;;;;;;;9.75;3.97;;;435.50;1561.60;;;;;;5056659;28;20096;-62
2021/05/27 00:28:59;;;;;;;11.35;3.92;;;435.40;1587.20;;;;;;5056578;28;20064;-62
2021/05/27 00:31:25;;;;;;;9.32;3.95;;;435.50;1561.60;;;;;;5038679;28;20017;-67
2021/05/27 00:33:51;;;;;;;10.82;3.30;;;435.50;1587.20;;;;;;5056520;28;20029;-63
2021/05/27 00:36:17;;;;;;;9.30;3.40;;;435.40;1587.20;;;;;;5056486;28;20096;-62
2021/05/27 00:38:42;;;;;;;9.57;3.70;;;435.40;1587.20;;;;;;5056225;28;20017;-64
2021/05/27 00:41:09;;;;;;;6.30;3.17;;;435.50;1587.20;;;;;;5056474;28;20071;-61
2021/05/27 00:43:35;;;;;;;8.73;3.75;;;435.30;1587.20;;;;;;5056344;28;20094;-67
2021/05/27 00:46:00;;;;;;;9.80;3.55;;;435.20;1612.80;;;;;;5056429;28;20082;-62
2021/05/27 00:51:11;;;;;;;4.57;2.58;;;410.50;1638.40;;;;;;5056813;28;20028;-62
2021/05/27 00:53:37;;;;;;;7.63;3.17;;;435.20;1638.40;;;;;;5038226;28;20366;-66
2021/05/27 00:56:03;;;;;;;8.23;3.10;;;410.50;1638.40;;;;;;5056121;28;20067;-62
2021/05/27 00:58:30;;;;;;;11.50;3.58;;;410.50;1638.40;;;;;;5056093;28;20131;-62
2021/05/27 01:00:56;;;;;;;8.88;4.13;;;410.40;1638.40;;;;;;5038185;28;20028;-68
2021/05/27 01:03:22;;;;;;;11.27;4.65;;;410.50;1612.80;;;;;;5054599;28;20400;-62
2021/05/27 01:05:48;;;;;;;10.50;3.65;;;410.30;1638.40;;;;;;5056028;28;20017;-62
2021/05/27 01:08:14;;;;;;;5.50;3.35;;;410.40;1638.40;;;;;;5037879;28;20036;-61
2021/05/27 01:10:40;;;;;;;11.88;3.88;;;410.40;1638.40;;;;;;5056027;28;20052;-61
2021/05/27 01:13:06;;;;;;;7.07;3.35;;;410.50;1638.40;;;;;;5055781;28;20024;-61
2021/05/27 01:15:35;;;;;;;8.40;3.35;;;410.50;1612.80;;;;;;5055782;28;20501;-67
2021/05/27 01:18:14;;;;;;;7.53;3.67;;;410.50;1638.40;;;;;;5056430;28;20021;-61
2021/05/27 01:20:47;;;;;;;6.18;3.50;;;410.50;1612.80;;;;;;5055651;28;20031;-66
2021/05/27 01:23:14;;;;;;;;;;;410.50;1638.40;;;;;;5056124;28;20111;-62
2021/05/27 01:25:42;;;;;;;6.45;3.30;;;410.40;1638.40;;;;;;5037659;28;19904;-62
2021/05/27 01:28:08;;;;;;;5.50;2.78;;;410.30;1638.40;;;;;;5055440;28;20049;-62
2021/05/27 01:30:34;;;;;;;5.05;3.45;;;410.30;1612.80;;;;;;5055420;28;20500;-61
2021/05/27 01:32:59;;;;;;;5.50;3.17;;;410.20;1638.40;;;;;;5037557;28;20021;-61
2021/05/27 01:35:26;;;;;;;8.57;3.30;;;410.10;1638.40;;;;;;5056173;28;20025;-67
2021/05/27 01:37:53;;;;;;;7.65;3.60;;;410.10;1638.40;;;;;;5055620;28;20028;-62
2021/05/27 01:40:22;;;;;;;7.22;3.22;;;410.20;1612.80;;;;;;5055092;28;20049;-61
2021/05/27 01:42:49;;;;;;;8.40;3.95;;;410.30;1587.20;;;;;;5055273;28;20021;-61
2021/05/27 01:45:15;;;;;;;5.05;3.33;;;410.30;1612.80;;;;;;5055537;28;20024;-62
2021/05/27 01:47:42;;;;;;;5.40;3.03;;;410.10;1638.40;;;;;;5055150;28;20075;-69
2021/05/27 01:50:19;;;;;;;5.80;3.08;;;410.20;1612.80;;;;;;5054993;28;20033;-62
2021/05/27 01:52:45;;;;;;;8.18;3.58;;;410.20;1612.80;;;;;;5055310;28;20398;-68
2021/05/27 01:55:11;;;;;;;11.40;3.22;;;410.20;1612.80;;;;;;5054979;28;20036;-62
2021/05/27 01:57:37;;;;;;;7.82;3.20;;;410.20;1612.80;;;;;;5054965;28;20013;-61
2021/05/27 02:00:05;;;;;;;8.98;3.70;;;410.20;1612.80;;;;;;5054907;28;20355;-62
2021/05/27 02:02:31;;;;;;;8.43;3.15;;;410.10;1612.80;;;;;;5054911;28;20025;-62
2021/05/27 02:04:57;;;;;;;11.90;3.17;;;410.20;1612.80;;;;;;5054786;28;20104;-61
2021/05/27 02:07:23;;;;;;;6.00;3.42;;;410.20;1612.80;;;;;;5036846;28;20112;-62
2021/05/27 02:09:49;;;;;;;5.40;3.58;;;410.20;1612.80;;;;;;5054618;28;20116;-61
2021/05/27 02:12:15;;;;;;;6.10;3.55;;;410.30;1612.80;;;;;;5054719;28;20440;-62
2021/05/27 02:14:41;;;;;;;10.18;3.35;;;410.30;1612.80;;;;;;5054215;28;20029;-61
2021/05/27 02:17:07;;;;;;;8.77;3.30;;;410.30;1612.80;;;;;;5054577;28;20103;-61
2021/05/27 02:19:33;;;;;;;7.75;2.63;;;410.30;1587.20;;;;;;5054464;28;20539;-68
2021/05/27 02:21:59;;;;;;;9.10;3.58;;;410.10;1612.80;;;;;;5036597;28;20029;-62
2021/05/27 02:24:24;;;;;;;6.45;3.30;;;410.20;1587.20;;;;;;5054565;28;20469;-68
2021/05/27 02:26:50;;;;;;;6.60;3.10;;;410.10;1612.80;;;;;;5054415;28;20032;-62
2021/05/27 02:29:16;;;;;;;7.03;3.15;;;410.10;1612.80;;;;;;5054290;28;20043;-62
2021/05/27 02:31:42;;;;;;;4.88;2.88;;;410.00;1612.80;;;;;;5054329;28;20025;-62
2021/05/27 02:34:08;;;;;;;6.90;3.75;;;409.90;1612.80;;;;;;5054255;28;20033;-62
2021/05/27 02:36:34;;;;;;;6.03;3.10;;;410.00;1612.80;;;;;;5054225;28;20060;-68
2021/05/27 02:39:00;;;;;;;11.60;3.83;;;410.00;1612.80;;;;;;5032818;28;20077;-61
2021/05/27 02:41:26;;;;;;;7.95;3.42;;;409.90;1638.40;;;;;;5034218;28;20036;-68
2021/05/27 02:43:52;;;;;;;5.88;3.30;;;410.00;1612.80;;;;;;5034209;28;20037;-62
2021/05/27 02:46:18;;;;;;;6.00;3.03;;;409.90;1612.80;;;;;;5034094;28;20489;-61
2021/05/27 02:48:44;;;;;;;6.78;2.92;;;409.90;1638.40;;;;;;5033996;28;20033;-62
2021/05/27 02:51:10;;;;;;;11.88;3.30;;;409.90;1638.40;;;;;;5032804;28;20037;-64
2021/05/27 02:53:36;;;;;;;7.28;3.28;;;409.90;1612.80;;;;;;5034054;28;20030;-62
2021/05/27 02:56:02;;;;;;;7.63;3.17;;;409.90;1638.40;;;;;;5017939;28;20040;-61
2021/05/27 02:58:29;;;;;;;5.20;3.20;;;409.90;1612.80;;;;;;5012840;28;20117;-62
2021/05/27 03:00:55;;;;;;;13.23;3.63;;;409.90;1638.40;;;;;;5014224;28;20026;-62
2021/05/27 03:03:21;;;;;;;5.60;3.08;;;409.80;1612.80;;;;;;5012406;28;20387;-62
2021/05/27 03:05:50;;;;;;;10.65;3.90;;;409.80;1638.40;;;;;;5014105;28;20065;-65
2021/05/27 03:08:16;;;;;;;13.43;3.97;;;409.70;1638.40;;;;;;5014271;28;20037;-62
2021/05/27 03:10:43;;;;;;;11.02;3.75;;;409.60;1664.00;;;;;;5014047;28;20084;-62
2021/05/27 03:13:09;;;;;;;14.57;3.78;;;409.70;1638.40;;;;;;5014001;28;20025;-61
2021/05/27 03:15:36;;;;;;;13.30;4.38;;;409.70;1638.40;;;;;;5014151;28;20393;-61
2021/05/27 03:18:04;;;;;;;14.75;4.20;;;409.60;1664.00;;;;;;5014255;28;20022;-61
2021/05/27 03:20:30;;;;;;;8.52;3.67;;;384.90;1664.00;;;;;;5013778;28;20537;-67
2021/05/27 03:22:56;;;;;;;11.98;4.10;;;409.60;1664.00;;;;;;5013854;28;20110;-61
2021/05/27 03:25:22;;;;;;;13.88;4.32;;;384.90;1638.40;;;;;;5013381;28;20033;-61
2021/05/27 03:27:48;;;;;;;17.00;4.25;;;409.60;1664.00;;;;;;5014005;28;20109;-60
2021/05/27 03:30:15;;;;;;;12.95;4.82;;;409.70;1664.00;;;;;;5013678;28;20034;-61
2021/05/27 03:32:41;;;;;;;10.00;4.72;;;409.60;1664.00;;;;;;5013637;28;20030;-68
2021/05/27 03:35:11;;;;;;;12.75;4.68;;;384.90;1664.00;;;;;;5013782;28;20040;-61
2021/05/27 03:37:38;;;;;;;11.38;4.50;;;384.80;1664.00;;;;;;5013679;28;20518;-61
2021/05/27 03:40:12;;;;;;;15.35;4.93;;;384.80;1664.00;;;;;;5040707;28;20405;-61
2021/05/27 03:42:49;;;;;;;13.95;4.03;;;384.80;1664.00;;;;;;5053281;28;20489;-61
2021/05/27 03:45:30;;;;;;;18.40;4.80;;;384.80;1664.00;;;;;;5053807;28;20051;-62
2021/05/27 03:47:56;;;;;;;13.77;4.85;;;384.70;1689.60;;;;;;5053129;28;20017;-61
2021/05/27 03:50:24;;;;;;;14.02;4.45;;;384.80;1689.60;;;;;;5053217;28;20029;-60
2021/05/27 03:52:51;;;;;;;11.75;4.55;;;384.90;1664.00;;;;;;5053186;28;20477;-61
2021/05/27 03:55:19;;;;;;;17.58;4.60;;;409.60;1664.00;;;;;;5053107;28;20515;-61
2021/05/27 03:57:46;;;;;;;10.93;4.28;;;409.60;1664.00;;;;;;5052858;28;20422;-61
2021/05/27 04:03:02;;;;;;;13.15;4.30;;;384.90;1664.00;;;;;;5053623;28;20386;-60
2021/05/27 04:08:13;;;;;;;8.75;3.70;;;409.70;1664.00;;;;;;5051709;28;20070;-61
2021/05/27 04:10:39;;;;;;;10.95;4.28;;;409.80;1638.40;;;;;;5052952;28;20155;-61
2021/05/27 04:13:05;;;;;;;8.40;3.67;;;410.00;1612.80;;;;;;5053517;28;20112;-61
2021/05/27 04:15:33;;;;;;;6.22;3.25;;;410.10;1587.20;;;;;;5052964;28;20028;-61
2021/05/27 04:18:10;;;;;;;10.48;3.38;;;410.20;1561.60;;;;;;5053133;28;20159;-63
2021/05/27 04:20:39;;;;;;;7.18;3.05;;;410.30;1587.20;;;;;;5052731;28;20044;-66
2021/05/27 04:23:11;;;;;;;12.43;3.78;;;410.30;1587.20;;;;;;5034884;28;20359;-61
2021/05/27 04:25:38;;;;;;;10.20;3.17;;;410.40;1587.20;;;;;;5052223;28;20036;-63
2021/05/27 04:28:05;;;;;;;7.90;3.30;;;410.40;1612.80;;;;;;5052545;28;20129;-69
2021/05/27 04:30:31;;;;;;;11.18;3.22;;;410.40;1612.80;;;;;;5051740;28;20025;-62
2021/05/27 04:33:06;;;;;;;9.18;3.00;;;410.50;1587.20;;;;;;5051894;28;20103;-69
2021/05/27 04:35:40;;;;;;;10.88;3.05;;;435.20;1587.20;;;;;;5051556;28;20112;-61
2021/05/27 04:38:11;;;;;;;18.23;3.97;;;435.20;1561.60;;;;;;5052217;28;20044;-68
2021/05/27 04:40:39;;;;;;;13.82;3.15;;;435.30;1587.20;;;;;;5055594;28;20098;-66
2021/05/27 04:43:05;;;;;;;14.15;3.00;;;435.30;1561.60;;;;;;5055918;28;20051;-61
2021/05/27 04:45:32;;;;;;;24.83;3.97;;;435.30;1561.60;;;;;;5055765;28;20029;-61
2021/05/27 04:47:58;;;;;;;17.73;3.38;;;435.40;1587.20;;;;;;5056042;28;20036;-61
2021/05/27 04:50:25;;;;;;;13.68;3.13;;;435.40;1587.20;;;;;;5055776;28;20503;-63
2021/05/27 04:52:51;;;;;;;12.40;3.30;;;435.50;1561.60;;;;;;5055588;28;20100;-62
2021/05/27 04:55:19;;;;;;;16.85;3.58;;;435.60;1561.60;;;;;;5055624;28;20025;-62
2021/05/27 04:57:46;;;;;;;11.85;3.03;;;435.50;1587.20;;;;;;5055442;28;20025;-61
2021/05/27 05:00:17;;;;;;;11.15;2.78;;;435.50;1612.80;;;;;;5055523;28;20017;-61
2021/05/27 05:02:43;;;;;;;12.55;2.78;;;435.60;1587.20;;;;;;5055503;28;20025;-63
2021/05/27 05:05:12;;;;;;;10.77;3.22;;;435.60;1587.20;;;;;;5055933;28;20039;-61
2021/05/27 05:07:39;;;;;;;10.48;2.92;;;435.70;1587.20;;;;;;5054698;28;20044;-61
2021/05/27 05:10:07;;;;;;;26.17;3.47;;;435.80;1561.60;;;;;;5053838;28;20033;-61
2021/05/27 05:12:51;;;;;;;36.97;4.45;;;435.80;1536.00;;;;;;5054018;28;20473;-61
2021/05/27 05:15:19;;;;;;;29.70;4.40;;;435.90;1536.00;;;;;;5053956;28;20025;-61
2021/05/27 05:17:54;;;;;;;53.47;6.28;;;435.90;1561.60;;;;;;5036071;28;20428;-61
2021/05/27 05:20:43;;;;;;;24.73;3.22;;;435.90;1536.00;;;;;;5054179;28;20103;-61
2021/05/27 05:23:10;;;;;;;21.15;3.85;;;435.90;1536.00;;;;;;5054966;28;20029;-61
2021/05/27 05:25:37;;;;;;;29.48;4.43;;;436.00;1536.00;;;;;;5055594;28;20052;-61
2021/05/27 05:28:04;;;;;;;7.30;2.58;;;436.10;1536.00;;;;;;5055480;28;20454;-61
2021/05/27 05:30:31;;;;;;;17.23;3.00;;;460.80;1536.00;;;;;;5055510;28;20032;-61
2021/05/27 05:32:57;;;;;;;11.82;2.28;;;460.80;1561.60;;;;;;5055996;28;20036;-61
2021/05/27 05:35:24;;;;;;;14.00;2.70;;;460.80;1536.00;;;;;;5056043;28;20033;-61
2021/05/27 05:37:52;;;;;;;16.27;2.50;;;460.90;1536.00;;;;;;5055432;28;20444;-61
2021/05/27 05:40:20;;;;;;;6.47;2.60;;;460.90;1561.60;;;;;;5037452;28;20084;-61
2021/05/27 05:42:46;;;;;;;8.85;2.60;;;461.00;1587.20;;;;;;5055502;28;20029;-61
2021/05/27 05:45:15;;;;;;;13.18;3.28;;;461.00;1561.60;;;;;;5055809;28;20115;-61
2021/05/27 05:47:41;;;;;;;9.60;2.53;;;461.10;1561.60;;;;;;5055131;28;20025;-61
2021/05/27 05:50:08;;;;;;;7.70;2.28;;;461.20;1561.60;;;;;;5054500;28;20213;-61
2021/05/27 05:52:35;;;;;;;8.38;2.47;;;461.20;1561.60;;;;;;5037278;28;20371;-61
2021/05/27 05:55:01;;;;;;;17.35;3.85;;;461.20;1561.60;;;;;;5055088;28;20036;-61
2021/05/27 05:57:27;;;;;;;14.90;2.75;;;461.30;1561.60;;;;;;5055079;28;20433;-61
2021/05/27 05:59:53;;;;;;;18.15;2.55;;;461.40;1536.00;;;;;;5037955;28;20033;-61
2021/05/27 06:02:19;;;;;;;4.55;1.52;;;461.50;1536.00;;;;;;5055134;28;20025;-60
2021/05/27 06:04:45;;;;;;;13.40;1.80;;;461.50;1510.40;;;;;;5054969;28;20079;-60
2021/05/27 06:07:11;;;;;;;8.23;1.83;;;461.60;1484.80;;;;;;5054900;28;20017;-60
2021/05/27 06:09:36;;;;;;;7.13;1.80;;;461.60;1484.80;;;;;;5054773;28;20032;-60
2021/05/27 06:12:03;;;;;;;3.92;1.65;;;486.40;1510.40;;;;;;5054843;28;20025;-61
2021/05/27 06:14:30;;;;;;;4.55;1.40;;;486.40;1459.20;;;;;;5054736;28;20440;-61
2021/05/27 06:16:57;;;;;;;8.38;1.52;;;486.50;1459.20;;;;;;5054911;28;20053;-61
2021/05/27 06:19:23;;;;;;;4.75;1.30;;;486.60;1433.60;;;;;;5054645;28;20028;-61
2021/05/27 06:21:49;;;;;;;5.80;1.90;;;486.70;1408.00;;;;;;5055182;28;20013;-61
2021/05/27 06:24:15;;;;;;;5.25;1.73;;;486.80;1408.00;;;;;;5054595;28;20025;-60
2021/05/27 06:26:42;;;;;;;101.38;9.68;;;486.90;1382.40;;;;;;5054835;28;20102;-61
2021/05/27 06:29:08;;;;;;;13.10;2.03;;;487.10;1408.00;;;;;;5054378;28;20055;-61
2021/05/27 06:31:33;;;;;;;8.57;1.77;;;487.20;1408.00;;;;;;5054393;28;20473;-61
2021/05/27 06:33:59;;;;;;;11.60;1.75;;;487.20;1408.00;;;;;;5054958;28;20060;-61
2021/05/27 06:36:26;;;;;;;12.55;1.90;;;512.00;1382.40;;;;;;5054710;28;20032;-61
2021/05/27 06:38:52;;;;;;;3.45;1.00;;;512.10;1356.80;;;;;;5054329;28;20041;-62
2021/05/27 06:41:21;;;;;;;4.50;1.35;;;512.10;1356.80;;;;;;5054244;28;20055;-61
2021/05/27 06:43:50;;;;;;;22.80;2.40;;;512.00;1331.20;;;;;;5054199;28;20079;-61
2021/05/27 06:46:18;;;;;;;9.32;1.33;;;512.00;1382.40;;;;;;5054118;28;20500;-61
2021/05/27 06:48:44;;;;;;;5.38;1.05;;;512.00;1356.80;;;;;;5054053;28;20043;-60
2021/05/27 06:51:10;;;;;;;2.63;1.00;;;512.00;1331.20;;;;;;5054095;28;20025;-60
2021/05/27 06:53:36;;;;;;;43.00;4.88;;;512.00;1356.80;;;;;;5053943;28;20036;-60
2021/05/27 06:56:02;;;;;;;7.97;1.10;;;512.20;1382.40;;;;;;5053237;28;20021;-68
2021/05/27 06:58:28;;;;;;;4.95;0.75;;;512.50;1280.00;;;;;;5053387;28;20025;-69
2021/05/27 07:00:54;;;;;;;9.20;1.25;;;512.60;1280.00;;;;;;5053383;28;20023;-61
2021/05/27 07:03:21;;;;;;;3.90;1.10;;;512.80;1254.40;;;;;;5053451;28;20476;-61
2021/05/27 07:05:48;;;;;;;4.90;1.02;;;537.60;1228.80;;;;;;5053790;28;20036;-56
2021/05/27 07:08:14;;;;;;;2.95;0.80;;;537.70;1228.80;;;;;;5053608;28;20024;-56
2021/05/27 07:10:41;;;;;;;4.03;1.35;;;537.70;1203.20;;;;;;5053620;28;20060;-56
2021/05/27 07:13:08;;;;;;;6.03;1.00;;;537.90;1254.40;;;;;;5053605;28;20021;-56
2021/05/27 07:15:38;;;;;;;4.07;0.95;;;538.00;1152.00;;;;;;5054030;28;20453;-56
2021/05/27 07:18:05;;;;;;;5.32;1.30;;;538.00;1203.20;;;;;;5053463;28;20025;-62
2021/05/27 07:20:32;;;;;;;16.92;1.40;;;538.10;1228.80;;;;;;5053214;28;20032;-56
2021/05/27 07:22:58;;;;;;;4.18;0.90;;;538.30;1152.00;;;;;;5051977;28;20068;-57
2021/05/27 07:25:25;;;;;;;10.38;1.05;;;538.40;1152.00;;;;;;5051818;28;20502;-56
2021/05/27 07:27:56;;;;;;;5.53;0.82;;;538.50;1126.40;;;;;;5051280;28;20048;-56
2021/05/27 07:30:25;;;;;;;3.28;0.70;;;538.50;1177.60;;;;;;5052170;28;20489;-56
2021/05/27 07:32:51;;;;;;;4.30;0.85;;;538.50;1100.80;;;;;;5052132;28;20510;-56
2021/05/27 07:35:17;;;;;;;3.05;1.20;;;563.20;1177.60;;;;;;5052145;28;20104;-56
2021/05/27 07:37:43;;;;;;;4.88;0.80;;;563.20;1126.40;;;;;;5053232;28;20033;-56
2021/05/27 07:40:10;;;;;;;3.33;1.10;;;563.30;1126.40;;;;;;5031956;28;20093;-55
2021/05/27 07:42:36;;;;;;;21.17;3.75;;;563.40;1177.60;;;;;;5033464;28;20025;-55
2021/05/27 07:45:03;;;;;;;17.90;3.15;;;563.30;1305.60;;;;;;5033907;28;20160;-55
2021/05/27 07:47:31;;;;;;;4.47;0.73;;;563.40;1280.00;;;;;;5033532;28;20022;-55
2021/05/27 07:49:57;;;;;;;5.03;0.77;;;563.50;1126.40;;;;;;5033508;28;20116;-55
2021/05/27 07:52:23;;;;;;;3.78;0.88;;;563.50;1152.00;;;;;;5032039;28;20118;-55
2021/05/27 07:54:49;;;;;;;10.35;1.38;;;563.50;1152.00;;;;;;5033580;28;20022;-56
2021/05/27 07:57:16;;;;;;;16.60;2.83;;;563.60;1152.00;;;;;;5033239;28;20028;-55
2021/05/27 07:59:42;;;;;;;14.93;2.20;;;563.60;1280.00;;;;;;5033310;28;20022;-55
2021/05/27 08:02:08;;;;;;;7.28;1.48;;;563.60;1280.00;;;;;;5033192;28;20099;-55
2021/05/27 08:04:34;;;;;;;14.32;1.83;;;563.50;1254.40;;;;;;5033547;28;20021;-55
2021/05/27 08:07:00;;;;;;;5.13;1.02;;;563.60;1254.40;;;;;;5033236;28;20359;-55
2021/05/27 08:09:26;;;;;;;7.32;1.73;;;563.60;1075.20;;;;;;5033667;28;20033;-56
2021/05/27 08:11:52;;;;;;;3.55;0.90;;;563.70;1049.60;;;;;;5033891;28;20021;-56
2021/05/27 08:14:18;;;;;;;6.25;1.25;;;563.70;1049.60;;;;;;5037109;28;20059;-56
2021/05/27 08:16:44;;;;;;;1.70;0.80;;;563.70;1126.40;;;;;;5037071;28;20535;-56
2021/05/27 08:19:10;;;;;;;11.48;2.13;;;563.70;1049.60;;;;;;5037028;28;20029;-56
2021/05/27 08:21:36;;;;;;;8.02;1.33;;;563.80;1152.00;;;;;;5037470;28;20075;-56
2021/05/27 08:24:02;;;;;;;8.85;1.38;;;563.80;1100.80;;;;;;5036842;28;20108;-56
2021/05/27 08:26:28;;;;;;;2.95;1.20;;;563.80;1126.40;;;;;;5036890;28;20029;-56
2021/05/27 08:28:54;;;;;;;4.30;0.95;;;563.90;1049.60;;;;;;5036789;28;20090;-56
2021/05/27 08:31:21;;;;;;;4.28;0.65;;;563.90;1024.00;;;;;;5036730;28;20022;-57
2021/05/27 08:33:50;;;;;;;2.03;0.75;;;563.90;1049.60;;;;;;5036795;28;20098;-62
2021/05/27 08:36:17;;;;;;;3.72;1.40;;;563.70;1049.60;;;;;;5036729;28;20014;-56
2021/05/27 08:38:43;;;;;;;4.22;1.20;;;563.80;1049.60;;;;;;5038784;28;20474;-56
2021/05/27 08:41:11;;;;;;;6.45;1.10;;;563.90;1024.00;;;;;;5056797;28;20041;-56
2021/05/27 08:43:37;;;;;;;5.78;1.30;;;563.80;1049.60;;;;;;5057037;28;20025;-56
2021/05/27 08:46:05;;;;;;;4.03;1.10;;;563.90;1049.60;;;;;;5056634;28;20389;-57
2021/05/27 08:48:31;;;;;;;8.40;1.08;;;564.00;1049.60;;;;;;5056282;28;20104;-56
2021/05/27 08:50:59;;;;;;;2.70;1.00;;;564.00;1100.80;;;;;;5056631;28;20489;-56
2021/05/27 08:53:26;;;;;;;4.60;0.90;;;588.80;1100.80;;;;;;5056201;28;20029;-56
2021/05/27 08:55:52;;;;;;;6.63;1.83;;;588.80;1024.00;;;;;;5056210;28;20049;-56
2021/05/27 08:58:18;;;;;;;10.80;2.67;;;588.80;1024.00;;;;;;5056260;28;20082;-56
2021/05/27 09:00:45;;;;;;;3.03;1.67;;;564.10;1126.40;;;;;;5056851;28;20036;-56
2021/05/27 09:03:13;;;;;;;4.15;1.30;;;564.10;1024.00;;;;;;5056393;28;20462;-56
2021/05/27 09:05:40;;;;;;;3.75;0.70;;;564.10;1024.00;;;;;;5056601;28;20424;-56
2021/05/27 09:08:08;;;;;;;1.23;0.63;;;564.10;998.40;;;;;;5038150;28;20028;-56
2021/05/27 09:10:47;;;;;;;3.22;0.90;;;588.90;1024.00;;;;;;5055979;28;20067;-56
2021/05/27 09:13:20;;;;;;;4.35;1.00;;;588.90;1049.60;;;;;;5056252;28;20056;-56
2021/05/27 09:15:48;;;;;;;8.07;0.85;;;588.90;972.80;;;;;;5056172;28;20024;-57
2021/05/27 09:18:29;;;;;;;3.28;1.20;;;588.90;998.40;;;;;;5055794;28;20025;-57
2021/05/27 09:20:55;;;;;;;2.70;0.80;;;589.00;972.80;;;;;;5055892;28;20025;-59
2021/05/27 09:23:21;;;;;;;6.35;1.80;;;588.90;972.80;;;;;;5036670;28;20017;-58
2021/05/27 09:25:53;;;;;;;4.43;0.77;;;589.00;998.40;;;;;;5055460;28;20031;-57
2021/05/27 09:28:28;;;;;;;5.68;1.48;;;589.00;921.60;;;;;;5055481;28;20070;-57
2021/05/27 09:31:06;;;;;;;3.03;1.20;;;589.00;972.80;;;;;;5055539;28;20104;-56
2021/05/27 09:33:39;;;;;;;2.67;1.05;;;588.90;972.80;;;;;;5055524;28;20028;-61
2021/05/27 09:36:09;;;;;;;4.18;1.60;;;588.80;1024.00;;;;;;5055499;28;20025;-56
2021/05/27 09:38:41;;;;;;;6.45;1.80;;;588.80;1024.00;;;;;;5055759;28;20025;-65
2021/05/27 09:41:28;;;;;;;7.88;1.67;;;588.90;1075.20;;;;;;5055410;28;20036;-60
2021/05/27 09:43:55;;;;;;;4.32;0.90;;;588.90;998.40;;;;;;5055332;28;20053;-56
2021/05/27 09:46:23;;;;;;;3.55;1.00;;;588.90;972.80;;;;;;5055189;28;20025;-57
2021/05/27 09:49:04;;;;;;;6.95;1.05;;;588.90;1024.00;;;;;;5053984;28;20507;-57
2021/05/27 09:51:29;;;;;;;2.90;1.05;;;589.00;1024.00;;;;;;5051249;28;20025;-57
2021/05/27 09:53:57;;;;;;;8.45;1.00;;;589.00;1075.20;;;;;;5053516;28;20485;-66
2021/05/27 09:56:33;;;;;;;5.75;1.23;;;589.40;1024.00;;;;;;5054017;28;20024;-64
2021/05/27 09:58:59;;;;;;;6.60;1.15;;;589.00;1024.00;;;;;;5051829;28;20029;-58
2021/05/27 10:01:25;;;;;;;1.67;0.82;;;589.10;998.40;;;;;;5054507;28;20155;-58
2021/05/27 10:03:51;;;;;;;7.38;1.38;;;589.10;1024.00;;;;;;5051735;28;20085;-63
2021/05/27 10:06:17;;;;;;;2.45;1.25;;;589.10;1024.00;;;;;;5054873;28;20505;-57
2021/05/27 10:08:49;;;;;;;8.90;1.25;;;589.10;972.80;;;;;;5054800;28;20028;-56
2021/05/27 10:11:16;;;;;;;4.65;1.20;;;589.20;998.40;;;;;;5055075;28;20033;-56
2021/05/27 10:13:43;;;;;;;4.78;1.38;;;589.20;1100.80;;;;;;5054818;28;20477;-56
2021/05/27 10:16:16;;;;;;;7.20;1.30;;;589.20;1024.00;;;;;;5054765;28;20029;-57
2021/05/27 10:18:43;;;;;;;5.45;1.10;;;589.20;1049.60;;;;;;5054903;28;20025;-56
2021/05/27 10:21:11;;;;;;;22.73;2.22;;;589.20;972.80;;;;;;5054059;28;20022;-57
2021/05/27 10:23:37;;;;;;;14.48;2.00;;;589.20;998.40;;;;;;5054010;28;20035;-56
2021/05/27 10:26:03;;;;;;;9.00;1.63;;;589.20;1049.60;;;;;;5052408;28;20405;-64
2021/05/27 10:28:30;;;;;;;5.47;1.10;;;589.20;1024.00;;;;;;5053910;28;20031;-58
2021/05/27 10:30:57;;;;;;;9.35;1.45;;;589.30;998.40;;;;;;5054068;28;20032;-58
2021/05/27 10:33:24;;;;;;;9.90;1.88;;;589.40;1024.00;;;;;;5054343;28;20025;-57
2021/05/27 10:36:02;;;;;;;7.28;1.60;;;589.40;998.40;;;;;;5054189;28;20381;-56
2021/05/27 10:38:40;;;;;;;7.10;1.65;;;589.40;972.80;;;;;;5054139;28;20068;-59
2021/05/27 10:41:42;;;;;;;10.43;1.60;;;589.50;972.80;;;;;;5054234;28;20417;-64
2021/05/27 10:44:12;;;;;;;7.60;2.38;;;589.50;972.80;;;;;;5053774;28;20116;-61
2021/05/27 10:46:44;;;;;;;14.57;2.55;;;589.50;1024.00;;;;;;5054359;28;20058;-57
2021/05/27 10:49:11;;;;;;;9.63;1.48;;;589.50;1075.20;;;;;;5053779;28;20115;-57
2021/05/27 10:51:45;;;;;;;16.30;2.13;;;589.50;972.80;;;;;;5054147;28;20072;-64
2021/05/27 10:54:27;;;;;;;7.78;1.50;;;589.60;998.40;;;;;;5054130;28;20027;-56
2021/05/27 10:56:53;;;;;;;5.22;1.33;;;589.60;998.40;;;;;;5053921;28;20014;-55
2021/05/27 10:59:19;;;;;;;3.35;0.98;;;589.60;998.40;;;;;;5053849;28;20386;-56
2021/05/27 11:01:45;;;;;;;3.13;0.98;;;589.60;921.60;;;;;;5054428;28;20056;-56
2021/05/27 11:04:24;;;;;;;13.18;2.00;;;589.70;921.60;;;;;;5053779;28;20052;-56
2021/05/27 11:07:20;;;;;;;8.23;1.30;;;589.70;998.40;;;;;;5036080;28;20537;-59
2021/05/27 11:09:48;;;;;;;7.80;1.50;;;589.70;972.80;;;;;;5053175;28;20047;-63
2021/05/27 11:12:23;;;;;;;4.35;1.38;;;589.60;947.20;;;;;;5053857;28;20024;-56
2021/05/27 11:14:54;;;;;;;4.20;1.15;;;589.70;972.80;;;;;;5053509;28;20112;-56
2021/05/27 11:17:24;;;;;;;11.32;2.17;;;589.60;972.80;;;;;;5053434;28;20025;-63
2021/05/27 11:20:06;;;;;;;13.23;1.60;;;589.60;1049.60;;;;;;5053687;28;20040;-57
2021/05/27 11:22:36;;;;;;;4.70;1.15;;;589.70;998.40;;;;;;5053396;28;20025;-62
2021/05/27 11:25:18;;;;;;;4.53;1.10;;;589.70;972.80;;;;;;5052706;28;20473;-56
2021/05/27 11:27:57;;;;;;;8.27;1.10;;;614.40;947.20;;;;;;5051440;28;20386;-56
2021/05/27 11:30:39;;;;;;;8.77;1.92;;;614.40;921.60;;;;;;5051359;28;20090;-58
2021/05/27 11:33:23;;;;;;;5.20;1.13;;;614.40;1024.00;;;;;;5051246;28;20037;-59
2021/05/27 11:35:51;;;;;;;2.97;1.17;;;614.50;1024.00;;;;;;5051392;28;20599;-56
2021/05/27 11:38:18;;;;;;;4.05;0.85;;;614.50;972.80;;;;;;5051421;28;20029;-56
2021/05/27 11:40:49;;;;;;;4.07;1.35;;;614.50;972.80;;;;;;5051696;28;20128;-56
2021/05/27 11:43:17;;;;;;;5.70;1.23;;;614.50;1049.60;;;;;;5053412;28;20017;-56
2021/05/27 11:45:51;;;;;;;20.85;2.30;;;614.50;972.80;;;;;;5053346;28;20028;-56
2021/05/27 11:48:24;;;;;;;17.83;2.13;;;614.60;998.40;;;;;;5052525;28;20056;-57
2021/05/27 11:51:12;;;;;;;23.13;2.20;;;614.60;998.40;;;;;;5034342;28;20114;-56
2021/05/27 11:53:52;;;;;;;4.30;1.10;;;614.70;998.40;;;;;;5053175;28;20028;-57
2021/05/27 11:56:40;;;;;;;5.85;1.05;;;614.90;972.80;;;;;;5033588;28;20025;-56
2021/05/27 11:59:09;;;;;;;3.15;1.30;;;614.80;972.80;;;;;;5033238;28;20025;-56
2021/05/27 12:01:35;;;;;;;3.25;1.02;;;614.80;921.60;;;;;;5033099;28;20164;-56
2021/05/27 12:04:12;;;;;;;11.30;1.58;;;614.80;947.20;;;;;;5039904;28;20458;-58
2021/05/27 12:07:01;;;;;;;6.32;1.15;;;614.80;921.60;;;;;;5051321;28;20389;-59
2021/05/27 12:09:33;;;;;;;14.10;2.10;;;614.80;896.00;;;;;;5049568;28;20563;-59
2021/05/27 12:12:14;;;;;;;22.52;2.35;;;614.80;972.80;;;;;;5048324;28;20100;-61
2021/05/27 12:14:53;;;;;;;9.60;1.50;;;;;;;;;;5048607;28;20096;-60
2021/05/27 12:17:41;;;;;;;14.95;1.77;;;615.00;947.20;;;;;;5048336;28;20028;-60
2021/05/27 12:20:12;;;;;;;8.13;1.70;;;615.10;896.00;;;;;;5049276;28;20108;-58
2021/05/27 12:22:48;;;;;;;14.68;2.22;;;615.10;972.80;;;;;;5048080;28;20424;-60
2021/05/27 12:25:16;;;;;;;4.03;1.23;;;615.10;998.40;;;;;;5047476;28;20116;-59
2021/05/27 12:27:44;;;;;;;10.30;1.30;;;615.00;998.40;;;;;;5050663;28;20439;-58
2021/05/27 12:30:12;;;;;;;4.28;1.05;;;615.10;972.80;;;;;;5039981;28;20055;-58
2021/05/27 12:32:48;;;;;;;6.40;1.10;;;614.90;972.80;;;;;;5050063;28;20377;-56